Time;durP1;ratioP1;P1;durP2;ratioP2;P2;SDS_P1;SDS_P2;PMS_P1;PMS_P2;Temp;Humidity;BMP_temperature;BMP_pressure;BME280_temperature;BME280_humidity;BME280_pressure;Samples;Min_cycle;Max_cycle;Signal;HPM_P1;HPM_P2
2023/04/10 00:00:11;;;;;;;10.10;6.00;;;;;;;6.54;61.62;99172.78;4998927;28;20228;-52
2023/04/10 00:02:38;;;;;;;7.67;5.10;;;;;;;6.38;62.19;99177.41;5001873;28;20239;-55
2023/04/10 00:05:07;;;;;;;7.37;5.30;;;;;;;6.30;64.27;99177.97;4999855;28;20274;-55
2023/04/10 00:07:33;;;;;;;7.23;5.10;;;;;;;6.18;64.38;99171.91;4999594;28;20237;-55
2023/04/10 00:10:00;;;;;;;8.73;6.07;;;;;;;6.14;63.63;99176.47;5003806;28;20233;-52
2023/04/10 00:12:27;;;;;;;7.63;5.10;;;;;;;6.23;63.52;99169.81;4999858;28;20631;-56
2023/04/10 00:14:53;;;;;;;7.87;5.13;;;;;;;6.07;64.93;99164.88;5000309;28;20244;-52
2023/04/10 00:17:20;;;;;;;8.63;5.30;;;;;;;6.14;63.36;99173.88;4997504;28;20233;-55
2023/04/10 00:19:47;;;;;;;7.40;5.30;;;;;;;6.20;63.36;99176.03;5000125;28;20707;-52
2023/04/10 00:22:15;;;;;;;7.80;5.60;;;;;;;6.11;63.91;99170.69;4993909;28;20283;-54
2023/04/10 00:24:41;;;;;;;7.97;5.30;;;;;;;6.02;65.19;99162.63;4999856;28;20261;-52
2023/04/10 00:27:08;;;;;;;7.77;5.10;;;;;;;6.08;63.27;99176.09;4999082;28;20245;-55
2023/04/10 00:29:35;;;;;;;8.30;5.67;;;;;;;6.17;63.74;99172.84;4997171;28;20237;-51
2023/04/10 00:32:02;;;;;;;8.03;5.40;;;;;;;6.10;66.21;99163.84;5006983;28;20259;-56
2023/04/10 00:34:28;;;;;;;6.50;5.03;;;;;;;5.90;66.02;99156.50;4997512;28;21032;-55
2023/04/10 00:36:55;;;;;;;7.20;5.30;;;;;;;5.74;67.34;99161.94;5014877;28;20712;-52
2023/04/10 00:39:23;;;;;;;7.60;5.57;;;;;;;5.71;67.37;99156.97;4997020;28;20237;-52
2023/04/10 00:41:52;;;;;;;7.87;5.60;;;;;;;5.52;68.48;99154.81;4998859;28;20244;-57
2023/04/10 00:44:19;;;;;;;9.30;5.50;;;;;;;5.37;70.26;99154.09;4992027;28;20817;-57
2023/04/10 00:46:46;;;;;;;8.77;5.67;;;;;;;5.17;71.17;99158.03;4998464;28;21033;-53
2023/04/10 00:49:13;;;;;;;8.83;5.30;;;;;;;5.10;72.93;99162.81;4996869;28;20292;-56
2023/04/10 00:51:40;;;;;;;8.23;5.40;;;;;;;4.98;73.76;99158.44;5000097;28;20234;-53
2023/04/10 00:54:09;;;;;;;8.73;5.30;;;;;;;4.88;72.92;99151.31;5003444;28;20231;-53
2023/04/10 00:57:03;;;;;;;8.87;5.63;;;;;;;4.79;73.14;99157.06;4999969;28;20367;-56
2023/04/10 00:59:30;;;;;;;8.50;5.00;;;;;;;4.85;74.07;99166.19;4957462;28;20227;-55
2023/04/10 01:01:57;;;;;;;7.60;4.77;;;;;;;4.71;74.04;99157.59;5000907;28;20248;-56
2023/04/10 01:04:27;;;;;;;7.90;5.20;;;;;;;4.72;76.60;99161.84;4997152;28;20224;-56
2023/04/10 01:07:00;;;;;;;7.87;5.07;;;;;;;4.70;73.82;99160.25;4977149;28;20268;-56
2023/04/10 01:09:47;;;;;;;7.47;4.70;;;;;;;4.62;75.12;99157.34;4932084;28;20242;-56
2023/04/10 01:12:39;;;;;;;7.43;5.13;;;;;;;4.49;73.77;99157.31;4938372;28;20311;-56
2023/04/10 01:15:11;;;;;;;7.90;5.07;;;;;;;4.43;76.34;99171.44;4983955;28;20229;-54
2023/04/10 01:17:46;;;;;;;8.80;5.27;;;;;;;4.42;76.65;99173.22;4989174;28;20235;-56
2023/04/10 01:20:16;;;;;;;8.47;5.67;;;;;;;4.43;77.50;99174.88;4995087;28;20298;-55
2023/04/10 01:22:58;;;;;;;8.90;5.87;;;;;;;4.37;76.49;99166.66;5012358;28;20240;-53
2023/04/10 01:25:39;;;;;;;8.30;5.40;;;;;;;4.28;76.80;99168.91;4995651;28;20816;-53
2023/04/10 01:28:33;;;;;;;7.67;5.20;;;;;;;4.29;78.86;99164.59;4998429;28;20229;-54
2023/04/10 01:31:03;;;;;;;11.07;5.50;;;;;;;4.21;78.39;99169.41;5000330;28;20303;-53
2023/04/10 01:33:44;;;;;;;8.73;5.30;;;;;;;4.24;80.13;99171.81;4963723;28;20220;-56
2023/04/10 01:36:22;;;;;;;9.00;5.40;;;;;;;4.19;79.69;99179.84;4993743;28;20235;-55
2023/04/10 01:38:51;;;;;;;8.13;5.10;;;;;;;4.12;78.84;99173.41;4994289;28;20635;-53
2023/04/10 01:41:21;;;;;;;7.93;5.40;;;;;;;4.07;80.23;99170.28;4991961;28;20600;-55
2023/04/10 01:43:50;;;;;;;8.97;5.13;;;;;;;4.12;83.04;99171.66;4983836;28;20611;-55
2023/04/10 01:46:21;;;;;;;7.50;5.23;;;;;;;4.05;82.17;99174.72;4987948;28;20253;-53
2023/04/10 01:48:54;;;;;;;9.47;5.40;;;;;;;4.18;81.22;99177.34;4998196;28;20228;-53
2023/04/10 01:51:25;;;;;;;8.60;5.27;;;;;;;4.14;81.40;99174.16;4994899;28;20301;-55
2023/04/10 01:53:52;;;;;;;8.07;5.57;;;;;;;4.08;81.65;99172.75;4996640;28;20314;-53
2023/04/10 01:56:23;;;;;;;8.83;5.40;;;;;;;3.98;80.79;99176.84;4976604;28;20267;-52
2023/04/10 01:58:51;;;;;;;8.60;5.30;;;;;;;3.91;81.09;99172.97;4997080;28;20225;-52
2023/04/10 02:01:22;;;;;;;8.60;5.67;;;;;;;3.89;82.31;99170.50;4977704;28;20256;-52
2023/04/10 02:03:49;;;;;;;9.83;5.83;;;;;;;3.93;83.22;99171.13;5007006;28;20235;-54
2023/04/10 02:06:26;;;;;;;9.10;6.07;;;;;;;3.96;83.29;99160.59;4997754;28;20243;-52
2023/04/10 02:08:57;;;;;;;7.77;5.37;;;;;;;3.93;83.99;99164.22;4997318;28;20228;-53
2023/04/10 02:11:31;;;;;;;9.27;5.90;;;;;;;3.93;83.22;99155.63;4994165;28;20666;-55
2023/04/10 02:14:02;;;;;;;7.77;5.33;;;;;;;3.92;83.37;99147.06;4991407;28;20874;-56
2023/04/10 02:16:32;;;;;;;8.50;5.97;;;;;;;3.84;83.70;99144.94;4998055;28;20229;-56
2023/04/10 02:19:00;;;;;;;9.07;5.50;;;;;;;3.80;84.55;99148.63;4990006;28;20224;-56
2023/04/10 02:21:27;;;;;;;7.93;5.40;;;;;;;3.78;85.82;99150.47;4998588;28;20255;-56
2023/04/10 02:23:55;;;;;;;10.40;6.43;;;;;;;3.80;87.28;99140.88;5002507;28;20232;-55
2023/04/10 02:26:22;;;;;;;10.97;6.03;;;;;;;3.92;84.66;99147.06;4999700;28;20239;-55
2023/04/10 02:28:49;;;;;;;13.03;5.53;;;;;;;3.94;83.82;99147.81;5002676;28;20232;-56
2023/04/10 02:31:15;;;;;;;9.90;5.60;;;;;;;3.93;84.09;99138.41;5014978;28;20610;-55
2023/04/10 02:33:43;;;;;;;8.60;5.47;;;;;;;3.82;84.63;99141.63;5002793;28;20576;-53
2023/04/10 02:36:11;;;;;;;8.17;5.50;;;;;;;3.74;84.17;99145.63;4997329;28;20774;-56
2023/04/10 02:38:38;;;;;;;8.77;5.73;;;;;;;3.70;85.13;99147.56;4997066;28;20255;-55
2023/04/10 02:41:05;;;;;;;9.53;5.50;;;;;;;3.69;84.52;99140.75;5016672;28;20327;-57
2023/04/10 02:43:32;;;;;;;7.93;5.27;;;;;;;3.61;84.92;99141.19;4998765;28;20236;-56
2023/04/10 02:45:58;;;;;;;7.83;5.63;;;;;;;3.56;84.63;99140.66;5002131;28;20310;-56
2023/04/10 02:48:28;;;;;;;7.43;5.13;;;;;;;3.71;84.95;99135.47;4999963;28;20228;-56
2023/04/10 02:51:01;;;;;;;8.03;5.40;;;;;;;3.58;84.08;99132.81;5002453;28;20229;-57
2023/04/10 02:53:28;;;;;;;8.47;5.37;;;;;;;3.54;84.44;99137.34;4997309;28;20240;-57
2023/04/10 02:55:58;;;;;;;9.10;5.80;;;;;;;3.66;84.72;99134.00;5002680;28;20732;-55
2023/04/10 02:58:26;;;;;;;8.57;5.60;;;;;;;3.65;84.85;99132.34;4998139;28;20230;-55
2023/04/10 03:04:03;;;;;;;7.73;5.20;;;;;;;3.66;85.31;99128.84;5809372;22;20311;-65
2023/04/10 03:06:36;;;;;;;8.67;5.53;;;;;;;3.65;85.68;99122.03;5013226;28;20243;-64
2023/04/10 03:09:03;;;;;;;8.40;5.27;;;;;;;3.63;86.08;99121.28;5028156;28;20232;-64
2023/04/10 03:11:30;;;;;;;8.17;5.47;;;;;;;3.63;85.51;99116.13;5016167;28;20570;-64
2023/04/10 03:13:57;;;;;;;8.90;5.93;;;;;;;3.59;85.70;99117.22;5022304;28;20289;-64
2023/04/10 03:16:24;;;;;;;8.63;5.53;;;;;;;3.51;85.67;99102.22;5025412;28;20885;-64
2023/04/10 03:18:51;;;;;;;8.30;5.40;;;;;;;3.51;86.54;99104.81;5017895;28;20762;-65
2023/04/10 03:21:18;;;;;;;8.17;5.50;;;;;;;3.52;86.50;99103.88;5012466;28;20239;-65
2023/04/10 03:23:46;;;;;;;8.47;5.87;;;;;;;3.73;85.81;99094.91;5033229;28;20717;-65
2023/04/10 03:26:13;;;;;;;8.60;5.23;;;;;;;3.69;87.73;99084.75;5014680;28;20289;-65
2023/04/10 03:28:40;;;;;;;9.33;5.67;;;;;;;3.65;88.17;99082.47;5024137;28;20223;-64
2023/04/10 03:31:11;;;;;;;10.10;6.07;;;;;;;3.61;87.89;99075.84;5236682;22;20227;-57
2023/04/10 03:33:39;;;;;;;9.40;5.47;;;;;;;3.65;87.53;99070.38;5012830;28;20238;-55
2023/04/10 03:36:07;;;;;;;10.90;5.67;;;;;;;3.64;87.60;99073.06;5021219;28;20221;-55
2023/04/10 03:38:33;;;;;;;9.53;5.40;;;;;;;3.62;87.67;99067.19;5018242;28;20236;-53
2023/04/10 03:41:02;;;;;;;11.53;6.40;;;;;;;3.69;87.04;99071.03;5017255;28;20702;-55
2023/04/10 03:43:31;;;;;;;8.07;5.10;;;;;;;3.76;86.47;99061.13;4997424;28;20260;-53
2023/04/10 03:45:58;;;;;;;8.20;5.60;;;;;;;3.75;85.87;99059.47;5007060;28;20223;-54
2023/04/10 03:48:26;;;;;;;9.50;5.90;;;;;;;3.74;85.03;99060.41;5001426;28;20230;-56
2023/04/10 03:50:54;;;;;;;10.87;5.53;;;;;;;3.81;85.61;99054.75;5005669;28;20286;-57
2023/04/10 03:53:21;;;;;;;7.53;4.17;;;;;;;3.87;86.18;99055.28;5012901;28;20223;-57
2023/04/10 03:55:47;;;;;;;7.60;4.63;;;;;;;3.76;85.98;99048.22;5006188;28;20989;-57
2023/04/10 03:58:15;;;;;;;8.17;5.50;;;;;;;3.77;85.71;99057.63;4996761;28;20227;-56
2023/04/10 04:00:42;;;;;;;9.40;5.27;;;;;;;3.76;84.77;99058.56;4999352;28;20327;-55
2023/04/10 04:03:30;;;;;;;8.67;4.83;;;;;;;3.66;83.64;99056.56;4988760;28;20318;-53
2023/04/10 04:06:00;;;;;;;8.13;5.30;;;;;;;3.57;84.06;99064.88;5015672;28;20244;-55
2023/04/10 04:08:26;;;;;;;8.97;5.33;;;;;;;3.64;83.67;99062.75;5010756;28;20236;-52
2023/04/10 04:11:16;;;;;;;6.57;4.70;;;;;;;3.75;81.92;99059.47;5010899;28;20236;-57
2023/04/10 04:13:58;;;;;;;6.50;4.33;;;;;;;3.61;82.00;99066.34;4996919;28;20228;-57
2023/04/10 04:16:39;;;;;;;6.67;4.90;;;;;;;3.62;81.64;99060.25;5010622;28;20313;-54
2023/04/10 04:19:24;;;;;;;5.83;3.97;;;;;;;3.75;83.32;99055.13;5015947;28;20227;-54
2023/04/10 04:22:11;;;;;;;7.20;4.27;;;;;;;3.66;83.88;99066.88;5012012;28;20243;-55
2023/04/10 04:24:56;;;;;;;6.83;4.50;;;;;;;3.63;83.22;99064.50;5012361;28;20238;-54
2023/04/10 04:27:35;;;;;;;8.07;5.00;;;;;;;3.74;81.51;99068.16;5016525;28;20562;-54
2023/04/10 04:30:25;;;;;;;7.90;5.27;;;;;;;3.74;81.74;99066.38;5016989;28;20244;-55
2023/04/10 04:33:13;;;;;;;8.30;5.17;;;;;;;3.84;81.91;99061.50;5012678;28;20587;-54
2023/04/10 04:35:49;;;;;;;11.80;5.80;;;;;;;3.77;82.63;99061.03;5017417;28;20347;-56
2023/04/10 04:38:35;;;;;;;9.27;5.90;;;;;;;3.90;83.47;99062.84;5011647;28;20238;-54
2023/04/10 04:41:14;;;;;;;8.80;5.37;;;;;;;3.80;82.69;99065.19;5012747;28;20219;-57
2023/04/10 04:43:55;;;;;;;10.67;5.97;;;;;;;3.80;83.31;99060.84;5011439;28;20717;-57
2023/04/10 04:46:29;;;;;;;8.33;5.70;;;;;;;3.77;84.61;99067.97;5007202;28;20246;-56
2023/04/10 04:49:30;;;;;;;9.83;5.70;;;;;;;3.69;85.38;99065.88;5011902;28;20757;-55
2023/04/10 04:52:15;;;;;;;9.83;6.83;;;;;;;3.73;84.68;99066.50;5016183;28;20595;-56
2023/04/10 04:54:46;;;;;;;9.10;5.67;;;;;;;3.80;85.08;99067.78;5022085;28;20232;-57
2023/04/10 04:57:33;;;;;;;8.17;5.70;;;;;;;3.70;85.20;99075.28;5020201;28;20313;-54
2023/04/10 05:00:07;;;;;;;11.13;7.20;;;;;;;3.72;84.80;99085.50;5014625;28;20662;-56
2023/04/10 05:03:07;;;;;;;9.55;6.53;;;;;;;3.76;85.25;99081.78;4977524;28;20447;-54
2023/04/10 05:05:34;;;;;;;11.53;6.67;;;;;;;3.65;86.20;99085.88;5007067;28;20228;-54
2023/04/10 05:08:23;;;;;;;14.33;8.37;;;;;;;3.78;86.21;99085.13;5011538;28;20240;-55
2023/04/10 05:11:02;;;;;;;10.20;6.40;;;;;;;3.71;87.30;99086.41;5009021;28;20236;-56
2023/04/10 05:13:38;;;;;;;10.87;6.53;;;;;;;3.79;87.09;99095.34;5012426;28;20219;-54
2023/04/10 05:16:14;;;;;;;10.80;7.23;;;;;;;3.79;87.94;99095.34;5019107;28;20231;-57
2023/04/10 05:18:57;;;;;;;9.43;6.90;;;;;;;3.78;88.67;99095.44;5010380;28;20224;-57
2023/04/10 05:21:47;;;;;;;12.13;8.60;;;;;;;3.78;87.61;99093.69;4959804;28;20263;-57
2023/04/10 05:24:46;;;;;;;10.60;6.40;;;;;;;3.80;87.01;99101.34;4969561;28;20232;-53
2023/04/10 05:27:17;;;;;;;10.37;7.20;;;;;;;3.83;87.14;99090.81;5010428;28;20224;-58
2023/04/10 05:30:04;;;;;;;12.07;7.80;;;;;;;3.95;87.38;99095.22;4979346;28;20694;-57
2023/04/10 05:32:49;;;;;;;11.63;7.23;;;;;;;4.06;87.29;99101.47;5011482;28;20394;-55
2023/04/10 05:35:46;;;;;;;10.00;6.03;;;;;;;4.17;87.99;99082.69;5011034;28;20235;-56
2023/04/10 05:38:22;;;;;;;9.63;6.07;;;;;;;4.23;88.29;99093.47;5013734;28;20237;-53
2023/04/10 05:41:13;;;;;;;10.93;7.80;;;;;;;4.37;86.75;99071.03;5013377;28;20243;-58
2023/04/10 05:43:56;;;;;;;10.37;7.23;;;;;;;4.50;86.97;99065.91;5014089;28;20232;-55
2023/04/10 05:46:31;;;;;;;9.50;6.30;;;;;;;4.53;88.67;99074.28;5013294;28;20230;-57
2023/04/10 05:49:16;;;;;;;9.47;6.73;;;;;;;4.64;88.25;99075.31;5011974;28;20231;-57
2023/04/10 05:52:03;;;;;;;10.57;6.73;;;;;;;4.67;87.30;99086.31;5013042;28;20241;-57
2023/04/10 05:54:39;;;;;;;10.43;6.83;;;;;;;4.73;87.28;99092.81;5006703;28;20228;-57
2023/04/10 05:57:12;;;;;;;9.67;6.20;;;;;;;4.86;83.69;99082.47;5009760;28;20232;-56
2023/04/10 05:59:54;;;;;;;13.73;10.53;;;;;;;4.88;85.00;99089.22;5011492;28;20733;-56
2023/04/10 06:02:39;;;;;;;12.48;9.40;;;;;;;4.95;85.73;99089.63;5005416;28;20553;-55
2023/04/10 06:05:09;;;;;;;13.23;9.47;;;;;;;5.08;83.16;99099.97;5009351;28;20834;-57
2023/04/10 06:07:38;;;;;;;13.20;9.40;;;;;;;5.10;83.02;99094.69;4996276;28;20254;-57
2023/04/10 06:10:06;;;;;;;11.50;8.50;;;;;;;5.15;82.61;99093.47;5010873;28;20235;-55
2023/04/10 06:12:35;;;;;;;9.73;6.83;;;;;;;5.19;82.77;99107.00;4974732;28;20323;-58
2023/04/10 06:15:06;;;;;;;10.67;8.63;;;;;;;5.19;83.28;99098.44;4975729;28;20635;-58
2023/04/10 06:17:35;;;;;;;13.00;7.27;;;;;;;5.21;84.01;99099.16;4988404;28;20635;-57
2023/04/10 06:20:03;;;;;;;13.30;7.53;;;;;;;5.22;83.42;99104.22;5000609;28;20235;-57
2023/04/10 06:22:31;;;;;;;11.00;7.13;;;;;;;5.20;84.03;99092.31;5011150;28;20599;-55
2023/04/10 06:24:59;;;;;;;9.53;6.67;;;;;;;5.20;83.06;99095.72;5014130;28;20631;-54
2023/04/10 06:27:26;;;;;;;8.53;5.87;;;;;;;5.20;84.58;99090.53;5011680;28;20241;-57
2023/04/10 06:29:53;;;;;;;12.37;7.00;;;;;;;5.21;83.94;99104.34;5014558;28;20224;-56
2023/04/10 06:32:22;;;;;;;10.53;6.63;;;;;;;5.27;84.92;99098.72;5016185;28;20421;-56
2023/04/10 06:34:50;;;;;;;10.17;7.17;;;;;;;5.29;83.36;99094.28;5013811;28;20264;-57
2023/04/10 06:37:16;;;;;;;13.33;7.33;;;;;;;5.32;82.43;99096.63;5013219;28;20223;-55
2023/04/10 06:39:43;;;;;;;10.50;6.70;;;;;;;5.41;82.76;99092.59;5023267;28;20223;-56
2023/04/10 06:42:11;;;;;;;11.77;7.23;;;;;;;5.49;82.65;99095.47;5017655;28;20649;-56
2023/04/10 06:44:55;;;;;;;11.70;6.63;;;;;;;5.54;83.36;99089.97;5020576;28;20235;-53
2023/04/10 06:47:21;;;;;;;8.50;6.00;;;;;;;5.61;82.60;99091.19;5009130;28;20225;-56
2023/04/10 06:49:48;;;;;;;10.93;6.53;;;;;;;5.67;82.43;99083.00;5015052;28;20231;-55
2023/04/10 06:52:15;;;;;;;9.83;6.90;;;;;;;5.76;81.92;99079.75;5016647;28;20233;-53
2023/04/10 06:54:41;;;;;;;9.47;6.47;;;;;;;5.85;81.12;99075.69;5018723;28;20233;-54
2023/04/10 06:57:08;;;;;;;9.07;5.93;;;;;;;5.97;79.79;99075.75;5016475;28;20599;-55
2023/04/10 06:59:36;;;;;;;7.30;5.67;;;;;;;6.05;77.85;99073.44;5012654;28;20236;-56
2023/04/10 07:02:03;;;;;;;8.80;6.17;;;;;;;6.18;78.12;99073.41;5022588;28;20336;-55
2023/04/10 07:04:32;;;;;;;8.40;5.93;;;;;;;6.19;81.68;99075.88;5012704;28;20222;-57
2023/04/10 07:06:59;;;;;;;11.40;5.50;;;;;;;6.35;80.73;99073.00;5010723;28;20239;-56
2023/04/10 07:09:26;;;;;;;9.27;5.63;;;;;;;6.56;77.38;99069.75;5015000;28;20674;-57
2023/04/10 07:11:52;;;;;;;9.73;5.90;;;;;;;6.74;77.29;99072.75;5017360;28;20240;-55
2023/04/10 07:14:19;;;;;;;8.80;6.43;;;;;;;6.96;73.70;99078.06;5013004;28;20218;-57
2023/04/10 07:16:48;;;;;;;9.83;6.87;;;;;;;7.18;70.07;99080.69;5011855;28;20704;-55
2023/04/10 07:19:14;;;;;;;11.30;7.67;;;;;;;7.38;70.98;99081.75;5016087;28;20596;-58
2023/04/10 07:21:41;;;;;;;12.67;6.73;;;;;;;7.58;72.36;99081.97;5016819;28;20252;-57
2023/04/10 07:24:08;;;;;;;8.93;6.47;;;;;;;7.73;71.36;99085.13;5014605;28;20257;-56
2023/04/10 07:26:34;;;;;;;10.70;6.23;;;;;;;7.86;69.46;99087.59;5020713;28;20956;-56
2023/04/10 07:29:01;;;;;;;10.47;7.10;;;;;;;8.05;69.48;99088.69;5015861;28;20218;-56
2023/04/10 07:31:28;;;;;;;8.73;6.50;;;;;;;8.18;67.96;99086.75;5016743;28;20255;-54
2023/04/10 07:33:56;;;;;;;11.43;7.87;;;;;;;8.25;67.80;99090.50;5018107;28;20288;-57
2023/04/10 07:36:22;;;;;;;9.27;6.23;;;;;;;8.37;66.85;99091.31;5009370;28;20236;-57
2023/04/10 07:38:49;;;;;;;11.43;6.93;;;;;;;8.52;63.88;99089.25;5017842;28;20227;-58
2023/04/10 07:41:16;;;;;;;13.67;8.13;;;;;;;8.66;64.14;99100.31;5013017;28;20239;-54
2023/04/10 07:43:42;;;;;;;13.10;8.53;;;;;;;8.56;65.41;99095.84;5012669;28;20546;-56
2023/04/10 07:46:09;;;;;;;14.30;9.00;;;;;;;8.59;67.02;99106.97;5008572;28;20225;-56
2023/04/10 07:48:36;;;;;;;14.97;8.47;;;;;;;8.50;66.33;99100.72;5022854;28;20253;-54
2023/04/10 07:51:08;;;;;;;12.73;8.60;;;;;;;8.62;65.02;99104.09;5016048;28;20237;-57
2023/04/10 07:53:34;;;;;;;13.47;8.90;;;;;;;8.69;64.63;99106.06;5013858;28;20233;-57
2023/04/10 07:56:01;;;;;;;15.20;9.40;;;;;;;8.82;64.21;99105.06;5013197;28;20234;-58
2023/04/10 07:58:28;;;;;;;14.53;9.10;;;;;;;8.92;65.08;99111.16;5007919;28;20271;-58
2023/04/10 08:00:55;;;;;;;13.07;8.00;;;;;;;9.07;63.54;99113.41;5012349;28;20230;-58
2023/04/10 08:03:22;;;;;;;11.52;8.30;;;;;;;9.21;62.69;99113.09;5010413;28;21005;-55
2023/04/10 08:05:49;;;;;;;11.77;7.60;;;;;;;9.37;61.59;99111.78;5013081;28;20227;-54
2023/04/10 08:08:17;;;;;;;13.83;8.17;;;;;;;9.45;60.29;99107.56;5014324;28;20241;-55
2023/04/10 08:10:44;;;;;;;12.67;8.10;;;;;;;9.48;60.54;99110.84;5015311;28;20223;-57
2023/04/10 08:13:10;;;;;;;13.33;9.00;;;;;;;9.50;60.89;99106.34;5013336;28;20231;-55
2023/04/10 08:15:37;;;;;;;12.97;9.17;;;;;;;9.49;62.60;99100.31;5012763;28;20583;-56
2023/04/10 08:18:03;;;;;;;14.53;8.30;;;;;;;9.43;62.27;99106.03;5014475;28;20264;-57
2023/04/10 08:20:35;;;;;;;14.23;8.47;;;;;;;9.54;62.72;99100.72;5009037;28;20760;-55
2023/04/10 08:23:02;;;;;;;12.70;8.37;;;;;;;9.51;61.05;99100.16;5015353;28;20230;-57
2023/04/10 08:25:30;;;;;;;13.27;8.40;;;;;;;9.59;60.48;99097.72;5011731;28;20227;-57
2023/04/10 08:27:59;;;;;;;11.67;8.03;;;;;;;9.69;58.69;99114.22;5015134;28;20675;-56
2023/04/10 08:30:25;;;;;;;10.97;7.90;;;;;;;9.83;59.52;99104.38;5013403;28;20582;-54
2023/04/10 08:32:52;;;;;;;11.80;7.83;;;;;;;9.98;57.96;99110.00;5016596;28;20231;-55
2023/04/10 08:35:19;;;;;;;12.87;8.03;;;;;;;10.19;58.95;99102.06;5009730;28;20405;-56
2023/04/10 08:37:46;;;;;;;9.90;7.63;;;;;;;10.33;57.09;99109.50;5014389;28;20341;-57
2023/04/10 08:40:12;;;;;;;10.77;7.83;;;;;;;10.26;58.38;99105.78;5007053;28;20230;-54
2023/04/10 08:42:40;;;;;;;9.43;6.87;;;;;;;10.26;55.10;99107.56;5014772;28;20701;-54
2023/04/10 08:45:08;;;;;;;10.63;7.30;;;;;;;10.30;56.83;99107.16;5008025;28;20235;-58
2023/04/10 08:47:37;;;;;;;9.47;6.80;;;;;;;10.45;55.62;99107.63;5018274;28;20238;-52
2023/04/10 08:50:07;;;;;;;9.20;7.00;;;;;;;10.50;55.04;99112.41;5015617;28;20311;-55
2023/04/10 08:52:38;;;;;;;9.63;6.80;;;;;;;10.47;54.23;99105.69;5017315;28;20705;-56
2023/04/10 08:55:08;;;;;;;10.60;6.90;;;;;;;10.59;56.43;99100.31;5014391;28;20310;-56
2023/04/10 08:57:37;;;;;;;9.93;7.60;;;;;;;10.68;56.27;99099.47;5006806;28;20239;-54
2023/04/10 09:00:06;;;;;;;10.60;7.40;;;;;;;10.92;57.01;99100.78;5013697;28;20281;-57
2023/04/10 09:02:33;;;;;;;11.27;7.83;;;;;;;11.03;55.92;99097.22;5008189;28;20739;-57
2023/04/10 09:05:02;;;;;;;12.13;6.80;;;;;;;11.01;54.13;99089.50;5009854;28;20238;-56
2023/04/10 09:07:29;;;;;;;9.03;6.47;;;;;;;11.18;52.95;99090.53;5010556;28;20235;-55
2023/04/10 09:09:56;;;;;;;12.30;6.37;;;;;;;11.29;52.57;99089.53;5012569;28;20322;-54
2023/04/10 09:12:23;;;;;;;9.33;5.70;;;;;;;11.36;49.95;99081.94;5012615;28;20626;-56
2023/04/10 09:14:52;;;;;;;8.73;6.10;;;;;;;11.54;50.70;99083.78;5015242;28;20236;-57
2023/04/10 09:17:21;;;;;;;8.27;6.23;;;;;;;11.56;49.75;99074.84;5011478;28;20634;-55
2023/04/10 09:19:51;;;;;;;9.03;5.60;;;;;;;11.66;50.74;99066.94;5010263;28;20234;-53
2023/04/10 09:22:18;;;;;;;8.40;5.80;;;;;;;11.85;47.80;99057.31;5013774;28;20711;-55
2023/04/10 09:24:47;;;;;;;8.03;5.23;;;;;;;12.13;48.49;99065.94;5014369;28;20231;-57
2023/04/10 09:27:28;;;;;;;7.93;5.13;;;;;;;12.30;47.81;99058.25;5013148;28;20227;-56
2023/04/10 09:29:54;;;;;;;8.23;5.93;;;;;;;12.31;48.16;99052.03;5017090;28;20236;-57
2023/04/10 09:32:39;;;;;;;7.40;5.87;;;;;;;12.39;46.16;99050.28;5009984;28;20317;-56
2023/04/10 09:35:07;;;;;;;8.40;5.17;;;;;;;12.57;46.79;99049.44;5010848;28;20244;-56
2023/04/10 09:37:34;;;;;;;7.83;5.33;;;;;;;12.72;46.45;99052.28;5014864;28;20259;-57
2023/04/10 09:40:01;;;;;;;7.03;5.10;;;;;;;12.80;45.73;99046.31;5015470;28;20240;-58
2023/04/10 09:42:32;;;;;;;7.30;5.50;;;;;;;12.62;45.85;99043.75;5007048;28;20244;-57
2023/04/10 09:45:00;;;;;;;6.63;5.27;;;;;;;12.71;46.45;99055.91;5013799;28;20239;-57
2023/04/10 09:47:27;;;;;;;6.57;5.30;;;;;;;12.69;43.77;99042.16;5012450;28;20246;-57
2023/04/10 09:49:59;;;;;;;7.10;5.57;;;;;;;12.67;45.87;99039.69;5015538;28;20216;-56
2023/04/10 09:52:27;;;;;;;8.13;5.83;;;;;;;12.60;48.57;99041.28;5011031;28;20698;-56
2023/04/10 09:54:55;;;;;;;8.27;5.83;;;;;;;12.80;47.28;99044.50;5011909;28;20259;-56
2023/04/10 09:57:23;;;;;;;7.43;5.23;;;;;;;12.82;47.65;99042.53;5010310;28;20236;-53
2023/04/10 09:59:51;;;;;;;7.27;5.33;;;;;;;12.65;48.26;99032.97;5016117;28;20228;-57
2023/04/10 10:02:18;;;;;;;6.63;5.37;;;;;;;12.44;48.93;99028.06;5008104;28;20324;-56
2023/04/10 10:04:46;;;;;;;8.07;6.00;;;;;;;12.61;49.36;99029.00;5016304;28;20687;-54
2023/04/10 10:07:16;;;;;;;7.23;5.67;;;;;;;12.61;50.08;99021.97;5013366;28;20318;-56
2023/04/10 10:09:43;;;;;;;6.77;4.97;;;;;;;12.79;47.81;99023.72;5014447;28;20250;-53
2023/04/10 10:12:12;;;;;;;5.10;3.97;;;;;;;12.85;43.61;99021.28;5010033;28;20224;-56
2023/04/10 10:15:00;;;;;;;5.13;4.00;;;;;;;12.78;42.71;99022.06;5011462;28;20709;-54
2023/04/10 10:17:32;;;;;;;5.57;3.70;;;;;;;12.81;43.68;99016.50;5003770;28;20247;-58
2023/04/10 10:20:04;;;;;;;5.00;4.00;;;;;;;13.01;41.84;99011.03;5015061;28;20235;-57
2023/04/10 10:22:35;;;;;;;4.83;3.63;;;;;;;13.05;41.22;99020.25;5006391;28;20298;-57
2023/04/10 10:25:03;;;;;;;5.50;4.27;;;;;;;13.10;41.26;99016.16;5012181;28;20896;-57
2023/04/10 10:27:31;;;;;;;5.13;3.70;;;;;;;13.17;42.29;99016.34;5009847;28;20234;-57
2023/04/10 10:30:02;;;;;;;5.80;4.43;;;;;;;13.29;44.98;99015.06;5008117;28;20280;-56
2023/04/10 10:32:30;;;;;;;7.17;5.07;;;;;;;13.45;45.04;99010.88;5003690;28;20707;-55
2023/04/10 10:34:57;;;;;;;6.40;5.37;;;;;;;13.54;45.72;99009.13;5011195;28;20219;-57
2023/04/10 10:37:24;;;;;;;7.20;5.30;;;;;;;13.68;45.26;98999.78;5007264;28;20239;-55
2023/04/10 10:40:00;;;;;;;7.53;5.10;;;;;;;13.72;46.49;98995.88;5010928;28;20229;-54
2023/04/10 10:42:34;;;;;;;7.57;5.37;;;;;;;13.77;45.86;98992.78;5005513;28;20886;-56
2023/04/10 10:45:07;;;;;;;6.33;5.00;;;;;;;13.81;44.95;98988.81;5009292;28;20707;-55
2023/04/10 10:47:42;;;;;;;8.37;5.90;;;;;;;13.84;46.59;98989.31;5007859;28;20233;-56
2023/04/10 10:50:09;;;;;;;6.53;5.37;;;;;;;14.21;47.51;98987.19;5009923;28;20241;-56
2023/04/10 10:52:45;;;;;;;7.67;5.77;;;;;;;14.33;47.23;98977.16;5010552;28;20237;-54
2023/04/10 10:55:35;;;;;;;8.90;6.00;;;;;;;14.62;45.43;98975.78;5014611;28;20228;-55
2023/04/10 10:58:04;;;;;;;7.40;5.63;;;;;;;14.65;44.73;98974.63;5013871;28;20333;-57
2023/04/10 11:01:06;;;;;;;6.50;5.37;;;;;;;14.96;44.11;98979.13;5009308;28;20234;-56
2023/04/10 11:03:32;;;;;;;7.40;5.70;;;;;;;14.93;44.47;98975.06;5011591;28;20267;-57
2023/04/10 11:06:01;;;;;;;8.17;6.10;;;;;;;14.96;46.07;98973.88;5011617;28;20246;-57
2023/04/10 11:08:44;;;;;;;7.93;6.10;;;;;;;15.39;45.47;98968.25;5012357;28;20260;-57
2023/04/10 11:11:15;;;;;;;7.93;6.07;;;;;;;15.50;46.58;98963.41;5007167;28;20758;-59
2023/04/10 11:14:01;;;;;;;9.27;6.20;;;;;;;15.66;45.90;98964.31;5010179;28;20220;-57
2023/04/10 11:16:42;;;;;;;8.20;6.33;;;;;;;16.03;44.14;98961.91;5009942;28;20232;-57
2023/04/10 11:19:11;;;;;;;7.67;6.07;;;;;;;16.03;43.66;98961.91;5014281;28;20315;-56
2023/04/10 11:22:06;;;;;;;8.67;5.60;;;;;;;15.92;44.01;98965.78;5014919;28;20273;-54
2023/04/10 11:24:52;;;;;;;8.10;5.70;;;;;;;15.79;43.87;98955.81;5015991;28;20372;-53
2023/04/10 11:27:45;;;;;;;8.17;5.27;;;;;;;16.09;44.33;98948.03;5011531;28;20249;-54
2023/04/10 11:30:31;;;;;;;6.83;5.63;;;;;;;15.99;43.36;98947.47;5015055;28;20736;-57
2023/04/10 11:32:59;;;;;;;7.70;5.83;;;;;;;16.25;43.49;98941.78;5015344;28;20694;-57
2023/04/10 11:35:27;;;;;;;7.40;5.73;;;;;;;16.62;43.03;98939.25;5013935;28;20234;-55
2023/04/10 11:38:14;;;;;;;7.10;5.73;;;;;;;16.72;43.54;98944.25;5015814;28;20354;-56
2023/04/10 11:40:57;;;;;;;6.17;5.10;;;;;;;16.74;40.56;98950.16;5012985;28;20231;-52
2023/04/10 11:43:25;;;;;;;10.77;5.80;;;;;;;16.75;40.81;98949.97;5008456;28;20299;-60
2023/04/10 11:46:03;;;;;;;6.63;4.90;;;;;;;16.33;40.19;98939.06;5016636;28;20226;-60
2023/04/10 11:48:30;;;;;;;6.67;5.00;;;;;;;16.57;40.64;98942.44;5013176;28;20263;-59
2023/04/10 11:50:58;;;;;;;5.73;4.97;;;;;;;17.10;38.96;98938.84;5009527;28;20228;-60
2023/04/10 11:53:25;;;;;;;5.67;4.43;;;;;;;17.14;39.51;98942.75;5009160;28;20234;-61
2023/04/10 11:55:52;;;;;;;5.60;4.43;;;;;;;17.21;38.19;98933.09;5012459;28;20275;-58
2023/04/10 11:58:28;;;;;;;6.30;4.80;;;;;;;17.60;38.73;98930.22;5010550;28;20238;-52
2023/04/10 12:00:56;;;;;;;5.73;4.70;;;;;;;17.48;40.11;98922.81;5012701;28;20311;-55